Terminal Aerodrome Forecast
Issued by NWS

Home | Current Version | Previous Version | Text Only | Print | Product List | Glossary On
Versions: 1 2 3 4 5 6 7 8 9 10 11 12 13 14 15 16 17 18 19 20 21 22 23
000
FTUS41 KALY 040521
TAFPSF
TAF
KPSF 040521Z 0406/0506 00000KT P6SM BKN250
     FM041100 00000KT P6SM VCSH SCT060 OVC120
     FM041500 19003KT P6SM -SHRA BKN050 OVC080
     FM041700 21003KT 5SM -SHRA BR BKN030 OVC050
     FM042200 21004KT P6SM VCSH BKN035 OVC050
     FM050200 00000KT P6SM BKN035 BKN050
     FM050500 00000KT 5SM BR SCT050=

USA.gov is the U.S. government's official web portal to all federal, state and local government web resources and services.